Malcolm Mc Kinnon Airport
KSSI : now visible

Airfield :











YOU CAN JOIN US ON...

 
LOGIN :

Register | Disclaimer

   EN    FR    IT 

 









Legend :    VFR   Marginal VFR   IFR   Intensive IFR   Very Intensive IFR
Visi :
Ceiling :
>= 8 km
>= 3000ft
5 to 8 km
1000 to 3000 ft
1500m to 5 km
500 to 1000 ft
800 to 1500m
200 to 500 ft
< 800m
< 200 ft
Symbols :   Thunderstorms  Fog  Heavy snow  Heavy precipitations  Wind > 20 kt







- Airport Elevation : 19 ft


KSSI - Malcolm Mc Kinnon

CURRENT METAR :
  • 202353Z AUTO 15009KT 10SM CLR 27/21 A2996 RMK AO2 SLP146 T02670211 10306 20267 55003

EXPIRED METARs :
  • 202253Z AUTO 16009KT 10SM CLR 28/21 A2995 RMK AO2 SLP145 T02780206
  • 202153Z AUTO 13011KT 10SM CLR 28/21 A2996 RMK AO2 SLP145 T02830211

TAF KSSI
Valid from the 21 at 00:00 until the 22 at 00:00 UTC


202325Z 2100/2124 16008KT P6SM SKC
FM210600 22006KT P6SM FEW015
FM211600 14012KT P6SM SCT040
KZJX FIR / North America



MET'MAP, your aeronautical weather chart ! - Copyright ORBIFLY December 2007 - Disclaimer

ORBIFLY MET'MAP TEAM :

Programming & Development : Alexandra Zaïnal
Concept & Development : Baudouin d'Aumeries
Co-Development & Prog : Marc-Olivier Méhu
Technical & hardware support : Manuel Goepfert

Contact : metmap@orbifly.com




SOURCES & CREDITS :

   NOAA       Earth
Advisory